Airfield :
LOGIN :

Register | Disclaimer

   EN    FR    IT 

 










Legend :    VFR   Marginal VFR   IFR   Intensive IFR   Very Intensive IFR
Visi :
Ceiling :
>= 8 km
>= 3000ft
5 to 8 km
1000 to 3000 ft
1500m to 5 km
500 to 1000 ft
800 to 1500m
200 to 500 ft
< 800m
< 200 ft
Symbols :   Thunderstorms  Fog  Heavy snow  Heavy precipitations  Wind > 20 kt
SIGMETs :     Misc.  Thunderstorms  Icing  Turbulence  Mountain Waves  Volcanic Ashes






- Airport Elevation : 245 ft
- IATA code : BIQ


LFBZ - Biarritz

CURRENT METAR :
  • 051900Z AUTO 23003KT 6000 BKN013 09/09 Q1024

EXPIRED METARs :
  • 051830Z AUTO VRB02KT 6000 1000 R09/P2000 R27/1200U NSC 09/09 Q1024
  • 051800Z AUTO 30003KT 6000 FEW007 10/09 Q1024
  • 051730Z AUTO 31003KT 5000 BR NSC 10/09 Q1024
  • 051700Z AUTO 28002KT 9000 NSC 10/10 Q1023
  • 051630Z AUTO 32003KT 9999 FEW006 BKN013 11/10 Q1023

Expired Forecast.



MET'MAP, your aeronautical weather chart ! - Copyright ORBIFLY December 2007 - Disclaimer

ORBIFLY MET'MAP TEAM :

Programming & Development : Alexandra Zaïnal
Concept & original design : Baudouin d'Aumeries
Assistance for programming : Marc-Olivier Méhu
Technical & hardware support : Manuel Goepfert

Contact : metmap@orbifly.com




SOURCES & CREDITS :

   NOAA